Friday, September 21, 2018, 5:32 PM EDT
Back to Local

KMGJ, Montgomery Orange Co Airport

Location: Montgomery, NY, United States Lat: 41.517
Local Time: 5:32 PM EDT (21:32 GMT) Lon: -74.267
Time Zone: US/Eastern Elev: 354 ft

Show me the last for .
Show Decoded

2018-09-21 16:54 METAR KMGJ 212054Z AUTO 20010KT 10SM OVC024 21/17 A3004 RMK AO2 SLP171 T02060172
                 56027 =
2018-09-21 15:54 METAR KMGJ 211954Z AUTO 20006KT 10SM OVC025 21/17 A3007 RMK AO2 SLP181 T02060167
                 =
2018-09-21 14:54 METAR KMGJ 211854Z AUTO 20007KT 10SM OVC026 21/17 A3009 RMK AO2 SLP189 T02060167
                 =
2018-09-21 13:54 METAR KMGJ 211754Z AUTO 19008KT 10SM OVC026 21/16 A3012 RMK AO2 SLP199 T02060161
                 10206 20183 56025 =
2018-09-21 12:54 METAR KMGJ 211654Z AUTO 19011KT 10SM OVC024 21/16 A3014 RMK AO2 SLP206 T02060161
                 =
2018-09-21 11:54 METAR KMGJ 211554Z AUTO 19010G18KT 10SM OVC024 20/16 A3016 RMK AO2 SLP212
                 T02000161 =
2018-09-21 11:17 METAR KMGJ 211517Z AUTO 19009KT 10SM OVC028 20/16 A3018 RMK AO2 T02000156 =
2018-09-21 10:54 METAR KMGJ 211454Z AUTO 19007KT 10SM FEW022 OVC030 19/16 A3020 RMK AO2 SLP224
                 T01940161 58013 =
2018-09-21 09:54 METAR KMGJ 211354Z AUTO 19008KT 10SM OVC031 19/16 A3021 RMK AO2 SLP229 T01940161
                 $ =
2018-09-21 08:54 METAR KMGJ 211254Z AUTO 19007KT 10SM FEW022 OVC031 19/16 A3023 RMK AO2 SLP235
                 T01890161 $ =
2018-09-21 08:47 METAR KMGJ 211247Z AUTO 20006KT 10SM FEW022 OVC031 18/16 A3023 RMK AO2 T01830161
                 $ =
2018-09-21 08:22 METAR KMGJ 211222Z AUTO 19005KT 10SM BKN022 BKN027 OVC032 18/16 A3024 RMK AO2
                 T01830161 $ =
2018-09-21 07:54 METAR KMGJ 211154Z AUTO 20005KT 10SM OVC033 18/16 A3023 RMK AO2 SLP237 T01830161
                 10183 20178 51004 $ =
2018-09-21 07:35 METAR KMGJ 211135Z AUTO 21003KT 10SM SCT025 OVC032 18/16 A3023 RMK AO2 T01830161
                 $ =
2018-09-21 06:54 METAR KMGJ 211054Z AUTO 21003KT 10SM OVC023 18/17 A3023 RMK AO2 SLP237 T01780167
                 $ =
2018-09-21 05:54 METAR KMGJ 210954Z AUTO 00000KT 10SM OVC017 18/17 A3023 RMK AO2 SLP236 T01780167
                 $ =
2018-09-21 04:54 METAR KMGJ 210854Z AUTO 00000KT 10SM OVC020 18/16 A3022 RMK AO2 SLP233 T01830161
                 55003 $ =
2018-09-21 03:54 METAR KMGJ 210754Z AUTO 19003KT 10SM OVC018 18/16 A3022 RMK AO2 SLP231 T01780161
                 $ =
2018-09-21 02:54 METAR KMGJ 210654Z AUTO 00000KT 10SM OVC016 18/16 A3023 RMK AO2 SLP234 T01830161
                 $ =
2018-09-21 01:54 METAR KMGJ 210554Z AUTO 00000KT 10SM OVC017 18/16 A3023 RMK AO2 SLP236 T01830161
                 10189 20178 58004 $ =
2018-09-21 00:54 METAR KMGJ 210454Z AUTO 00000KT 10SM OVC019 18/16 A3024 RMK AO2 SLP239 T01780161
                 402060156 $ =
2018-09-21 00:41 METAR KMGJ 210441Z AUTO 00000KT 10SM BKN019 OVC032 18/16 A3025 RMK AO2 T01780156
                 $ =
2018-09-20 23:54 METAR KMGJ 210354Z AUTO 25003KT 10SM OVC032 18/16 A3025 RMK AO2 SLP243 T01780156
                 $ =
2018-09-20 22:54 METAR KMGJ 210254Z AUTO 19003KT 10SM OVC033 18/15 A3025 RMK AO2 SLP241 T01830150
                 51010 $ =
2018-09-20 21:54 METAR KMGJ 210154Z AUTO 00000KT 10SM OVC033 18/17 A3024 RMK AO2 SLPNO T01830172
                 $ =
2018-09-20 20:54 METAR KMGJ 210054Z AUTO 00000KT 10SM OVC030 19/17 A3023 RMK AO2 SLPNO T01890172
                 $ =
2018-09-20 20:45 METAR KMGJ 210045Z AUTO 00000KT 10SM OVC030 19/17 A3023 RMK AO2 T01890172 $ =
2018-09-20 20:06 METAR KMGJ 210006Z AUTO 00000KT 10SM OVC028 19/17 A3022 RMK AO2 T01890167 $ =
2018-09-20 19:54 METAR KMGJ 202354Z AUTO 00000KT 10SM OVC030 19/17 A3022 RMK AO2 RAB23E33 SLPNO
                 P0000 60000 T01890167 10206 20189 55000 $ =
2018-09-20 19:33 METAR KMGJ 202333Z AUTO 00000KT 10SM OVC030 19/17 A3021 RMK AO2 RAB23E33 P0000
                 T01890167 $ =
2018-09-20 18:54 METAR KMGJ 202254Z AUTO 15003KT 10SM OVC028 19/16 A3021 RMK AO2 SLPNO T01940161
                 $ =
2018-09-20 18:50 METAR KMGJ 202250Z AUTO 00000KT 10SM OVC028 19/16 A3022 RMK AO2 $ =
2018-09-20 17:54 METAR KMGJ 202154Z AUTO 00000KT 10SM BKN033 OVC049 20/16 A3022 RMK AO2 SLPNO
                 T02000161 $ =

Support USWX by starting your Amazon purchase here.